sensor_id;sensor_type;location;lat;lon;timestamp;pressure;altitude;pressure_sealevel;temperature;humidity
54369;BME280;40266;52.434;17.056;2023-02-18T00:02:15;100004.52;;;6.45;78.65
54369;BME280;40266;52.434;17.056;2023-02-18T00:05:02;99995.48;;;6.45;78.29
54369;BME280;40266;52.434;17.056;2023-02-18T00:07:51;100003.13;;;6.45;77.61
54369;BME280;40266;52.434;17.056;2023-02-18T00:11:10;100011.48;;;6.42;77.79
54369;BME280;40266;52.434;17.056;2023-02-18T00:14:12;100008.73;;;6.40;77.80
54369;BME280;40266;52.434;17.056;2023-02-18T00:17:08;100005.79;;;6.40;77.53
54369;BME280;40266;52.434;17.056;2023-02-18T00:19:52;100011.86;;;6.40;77.18
54369;BME280;40266;52.434;17.056;2023-02-18T00:23:14;100011.17;;;6.39;77.22
54369;BME280;40266;52.434;17.056;2023-02-18T00:26:37;100015.73;;;6.35;77.71
54369;BME280;40266;52.434;17.056;2023-02-18T00:29:53;100005.00;;;6.31;77.62
54369;BME280;40266;52.434;17.056;2023-02-18T00:32:53;100004.17;;;6.28;77.63
54369;BME280;40266;52.434;17.056;2023-02-18T00:35:36;100002.27;;;6.26;77.54
54369;BME280;40266;52.434;17.056;2023-02-18T00:55:43;100018.18;;;5.96;77.54
54369;BME280;40266;52.434;17.056;2023-02-18T00:58:30;100019.92;;;5.92;77.71
54369;BME280;40266;52.434;17.056;2023-02-18T01:01:40;100026.70;;;5.89;77.43
54369;BME280;40266;52.434;17.056;2023-02-18T01:07:52;100033.52;;;5.82;77.45
54369;BME280;40266;52.434;17.056;2023-02-18T01:17:37;100041.95;;;5.69;77.99
54369;BME280;40266;52.434;17.056;2023-02-18T01:21:12;100041.96;;;5.66;78.12
54369;BME280;40266;52.434;17.056;2023-02-18T01:24:39;100037.13;;;5.65;78.32
54369;BME280;40266;52.434;17.056;2023-02-18T01:27:42;100028.13;;;5.63;78.40
54369;BME280;40266;52.434;17.056;2023-02-18T01:31:19;100035.95;;;5.60;78.41
54369;BME280;40266;52.434;17.056;2023-02-18T01:34:38;100044.98;;;5.56;78.66
54369;BME280;40266;52.434;17.056;2023-02-18T01:37:42;100046.05;;;5.52;78.85
54369;BME280;40266;52.434;17.056;2023-02-18T01:44:22;100042.94;;;5.49;78.71
54369;BME280;40266;52.434;17.056;2023-02-18T01:50:50;100033.98;;;5.43;78.71
54369;BME280;40266;52.434;17.056;2023-02-18T01:58:24;100042.67;;;5.39;78.85
54369;BME280;40266;52.434;17.056;2023-02-18T02:01:40;100042.01;;;5.36;78.89
54369;BME280;40266;52.434;17.056;2023-02-18T02:04:53;100041.16;;;5.31;79.07
54369;BME280;40266;52.434;17.056;2023-02-18T02:07:37;100040.14;;;5.27;79.25
54369;BME280;40266;52.434;17.056;2023-02-18T02:10:20;100037.73;;;5.25;79.49
54369;BME280;40266;52.434;17.056;2023-02-18T02:13:14;100041.21;;;5.22;79.37
54369;BME280;40266;52.434;17.056;2023-02-18T02:16:09;100042.44;;;5.20;79.62
54369;BME280;40266;52.434;17.056;2023-02-18T02:29:11;100042.70;;;5.05;79.79
54369;BME280;40266;52.434;17.056;2023-02-18T02:38:04;100041.34;;;4.99;80.08
54369;BME280;40266;52.434;17.056;2023-02-18T02:46:51;100051.85;;;5.07;80.48
54369;BME280;40266;52.434;17.056;2023-02-18T02:49:47;100068.96;;;5.11;80.78
54369;BME280;40266;52.434;17.056;2023-02-18T02:52:35;100060.47;;;5.15;80.71
54369;BME280;40266;52.434;17.056;2023-02-18T02:55:20;100065.13;;;5.18;80.81
54369;BME280;40266;52.434;17.056;2023-02-18T02:58:04;100068.39;;;5.22;80.63
54369;BME280;40266;52.434;17.056;2023-02-18T03:01:29;100067.69;;;5.25;80.69
54369;BME280;40266;52.434;17.056;2023-02-18T03:16:18;100070.23;;;5.33;80.55
54369;BME280;40266;52.434;17.056;2023-02-18T03:19:23;100071.80;;;5.33;80.52
54369;BME280;40266;52.434;17.056;2023-02-18T03:22:30;100070.75;;;5.33;80.32
54369;BME280;40266;52.434;17.056;2023-02-18T03:25:15;100077.33;;;5.34;80.43
54369;BME280;40266;52.434;17.056;2023-02-18T03:28:03;100080.63;;;5.35;80.39
54369;BME280;40266;52.434;17.056;2023-02-18T03:31:07;100086.68;;;5.34;80.47
54369;BME280;40266;52.434;17.056;2023-02-18T03:34:00;100083.39;;;5.35;80.15
54369;BME280;40266;52.434;17.056;2023-02-18T03:36:46;100079.40;;;5.35;80.19
54369;BME280;40266;52.434;17.056;2023-02-18T03:39:31;100079.05;;;5.36;80.09
54369;BME280;40266;52.434;17.056;2023-02-18T03:42:16;100084.08;;;5.37;79.91
54369;BME280;40266;52.434;17.056;2023-02-18T03:45:00;100089.79;;;5.37;79.87
54369;BME280;40266;52.434;17.056;2023-02-18T03:47:43;100091.50;;;5.38;79.63
54369;BME280;40266;52.434;17.056;2023-02-18T03:50:26;100096.89;;;5.37;79.78
54369;BME280;40266;52.434;17.056;2023-02-18T03:53:09;100097.59;;;5.37;79.84
54369;BME280;40266;52.434;17.056;2023-02-18T03:55:52;100098.96;;;5.36;79.99
54369;BME280;40266;52.434;17.056;2023-02-18T03:58:36;100101.55;;;5.36;80.08
54369;BME280;40266;52.434;17.056;2023-02-18T04:01:19;100100.70;;;5.36;79.89
54369;BME280;40266;52.434;17.056;2023-02-18T04:04:02;100108.49;;;5.36;79.84
54369;BME280;40266;52.434;17.056;2023-02-18T04:06:45;100108.48;;;5.37;79.30
54369;BME280;40266;52.434;17.056;2023-02-18T04:09:28;100115.77;;;5.37;79.75
54369;BME280;40266;52.434;17.056;2023-02-18T04:12:11;100112.11;;;5.37;79.48
54369;BME280;40266;52.434;17.056;2023-02-18T04:14:54;100121.98;;;5.37;79.36
54369;BME280;40266;52.434;17.056;2023-02-18T04:17:37;100125.29;;;5.35;79.50
54369;BME280;40266;52.434;17.056;2023-02-18T04:20:21;100128.07;;;5.33;79.44
54369;BME280;40266;52.434;17.056;2023-02-18T04:23:04;100125.84;;;5.32;79.65
54369;BME280;40266;52.434;17.056;2023-02-18T04:25:47;100128.09;;;5.31;79.55
54369;BME280;40266;52.434;17.056;2023-02-18T04:28:30;100115.79;;;5.30;79.35
54369;BME280;40266;52.434;17.056;2023-02-18T04:31:13;100117.00;;;5.29;79.34
54369;BME280;40266;52.434;17.056;2023-02-18T04:33:57;100114.77;;;5.27;79.29
54369;BME280;40266;52.434;17.056;2023-02-18T04:36:39;100118.41;;;5.27;79.25
54369;BME280;40266;52.434;17.056;2023-02-18T04:39:23;100117.88;;;5.26;79.26
54369;BME280;40266;52.434;17.056;2023-02-18T04:42:05;100119.27;;;5.26;79.30
54369;BME280;40266;52.434;17.056;2023-02-18T04:44:50;100109.41;;;5.25;79.23
54369;BME280;40266;52.434;17.056;2023-02-18T04:47:33;100114.77;;;5.25;79.27
54369;BME280;40266;52.434;17.056;2023-02-18T04:50:17;100113.73;;;5.25;79.14
54369;BME280;40266;52.434;17.056;2023-02-18T04:53:00;100128.09;;;5.26;79.11
54369;BME280;40266;52.434;17.056;2023-02-18T04:55:43;100125.15;;;5.26;79.16
54369;BME280;40266;52.434;17.056;2023-02-18T04:58:30;100117.02;;;5.25;79.06
54369;BME280;40266;52.434;17.056;2023-02-18T05:01:13;100110.80;;;5.25;79.05
54369;BME280;40266;52.434;17.056;2023-02-18T05:03:56;100118.59;;;5.23;79.09
54369;BME280;40266;52.434;17.056;2023-02-18T05:06:39;100118.77;;;5.23;79.12
54369;BME280;40266;52.434;17.056;2023-02-18T05:09:25;100126.38;;;5.22;78.96
54369;BME280;40266;52.434;17.056;2023-02-18T05:12:08;100126.55;;;5.21;78.56
54369;BME280;40266;52.434;17.056;2023-02-18T05:14:51;100131.76;;;5.21;78.54
54369;BME280;40266;52.434;17.056;2023-02-18T05:17:34;100141.98;;;5.20;78.73
54369;BME280;40266;52.434;17.056;2023-02-18T05:20:17;100147.86;;;5.19;78.60
54369;BME280;40266;52.434;17.056;2023-02-18T05:23:00;100150.13;;;5.18;78.56
54369;BME280;40266;52.434;17.056;2023-02-18T05:25:43;100144.23;;;5.16;78.63
54369;BME280;40266;52.434;17.056;2023-02-18T05:28:26;100149.10;;;5.15;78.62
54369;BME280;40266;52.434;17.056;2023-02-18T05:31:10;100146.50;;;5.14;78.45
54369;BME280;40266;52.434;17.056;2023-02-18T05:33:53;100149.98;;;5.11;78.46
54369;BME280;40266;52.434;17.056;2023-02-18T05:36:36;100158.81;;;5.07;78.36
54369;BME280;40266;52.434;17.056;2023-02-18T05:39:19;100162.80;;;5.02;78.26
54369;BME280;40266;52.434;17.056;2023-02-18T05:42:02;100165.59;;;4.98;78.51
54369;BME280;40266;52.434;17.056;2023-02-18T05:44:45;100171.30;;;4.94;78.56
54369;BME280;40266;52.434;17.056;2023-02-18T05:47:28;100173.92;;;4.89;78.79
54369;BME280;40266;52.434;17.056;2023-02-18T05:50:11;100182.76;;;4.87;78.76
54369;BME280;40266;52.434;17.056;2023-02-18T05:52:54;100182.23;;;4.86;78.84
54369;BME280;40266;52.434;17.056;2023-02-18T05:55:37;100182.92;;;4.86;78.68
54369;BME280;40266;52.434;17.056;2023-02-18T05:58:20;100188.29;;;4.89;78.73
54369;BME280;40266;52.434;17.056;2023-02-18T06:01:04;100196.41;;;4.93;78.88
54369;BME280;40266;52.434;17.056;2023-02-18T06:03:48;100198.30;;;4.95;78.80
54369;BME280;40266;52.434;17.056;2023-02-18T06:06:31;100202.46;;;4.97;78.76
54369;BME280;40266;52.434;17.056;2023-02-18T06:09:14;100205.56;;;4.99;78.83
54369;BME280;40266;52.434;17.056;2023-02-18T06:11:57;100196.73;;;5.01;78.88
54369;BME280;40266;52.434;17.056;2023-02-18T06:14:40;100211.10;;;5.02;79.03
54369;BME280;40266;52.434;17.056;2023-02-18T06:17:24;100199.50;;;5.04;78.93
54369;BME280;40266;52.434;17.056;2023-02-18T06:20:07;100204.34;;;5.04;78.86
54369;BME280;40266;52.434;17.056;2023-02-18T06:22:50;100212.83;;;5.06;78.87
54369;BME280;40266;52.434;17.056;2023-02-18T06:25:33;100214.38;;;5.05;78.95
54369;BME280;40266;52.434;17.056;2023-02-18T06:28:17;100219.74;;;5.05;79.04
54369;BME280;40266;52.434;17.056;2023-02-18T06:31:00;100224.23;;;5.07;79.01
54369;BME280;40266;52.434;17.056;2023-02-18T06:33:43;100222.86;;;5.08;78.94
54369;BME280;40266;52.434;17.056;2023-02-18T06:36:26;100228.39;;;5.09;78.98
54369;BME280;40266;52.434;17.056;2023-02-18T06:39:10;100235.65;;;5.12;78.95
54369;BME280;40266;52.434;17.056;2023-02-18T06:41:54;100229.92;;;5.14;79.18
54369;BME280;40266;52.434;17.056;2023-02-18T06:44:37;100227.86;;;5.16;79.17
54369;BME280;40266;52.434;17.056;2023-02-18T06:47:19;100234.08;;;5.20;79.22
54369;BME280;40266;52.434;17.056;2023-02-18T06:50:04;100231.99;;;5.21;79.17
54369;BME280;40266;52.434;17.056;2023-02-18T06:52:47;100233.04;;;5.26;79.09
54369;BME280;40266;52.434;17.056;2023-02-18T06:55:30;100237.50;;;5.31;79.14
54369;BME280;40266;52.434;17.056;2023-02-18T06:58:13;100242.69;;;5.35;79.27
54369;BME280;40266;52.434;17.056;2023-02-18T07:00:56;100246.67;;;5.38;79.06
54369;BME280;40266;52.434;17.056;2023-02-18T07:03:40;100244.59;;;5.41;79.10
54369;BME280;40266;52.434;17.056;2023-02-18T07:06:23;100242.84;;;5.45;79.19
54369;BME280;40266;52.434;17.056;2023-02-18T07:09:06;100240.91;;;5.46;78.96
54369;BME280;40266;52.434;17.056;2023-02-18T07:11:49;100244.22;;;5.47;79.21
54369;BME280;40266;52.434;17.056;2023-02-18T07:14:33;100249.41;;;5.48;79.33
54369;BME280;40266;52.434;17.056;2023-02-18T07:17:17;100250.45;;;5.47;79.29
54369;BME280;40266;52.434;17.056;2023-02-18T07:20:00;100245.41;;;5.50;79.14
54369;BME280;40266;52.434;17.056;2023-02-18T07:22:43;100240.55;;;5.52;79.20
54369;BME280;40266;52.434;17.056;2023-02-18T07:25:27;100241.07;;;5.54;79.06
54369;BME280;40266;52.434;17.056;2023-02-18T07:28:10;100244.35;;;5.57;79.27
54369;BME280;40266;52.434;17.056;2023-02-18T07:30:53;100242.08;;;5.60;79.11
54369;BME280;40266;52.434;17.056;2023-02-18T07:33:36;100240.67;;;5.67;78.80
54369;BME280;40266;52.434;17.056;2023-02-18T07:36:19;100240.31;;;5.72;79.14
54369;BME280;40266;52.434;17.056;2023-02-18T07:39:03;100239.08;;;5.76;78.86
54369;BME280;40266;52.434;17.056;2023-02-18T07:41:46;100242.68;;;5.81;78.89
54369;BME280;40266;52.434;17.056;2023-02-18T07:44:30;100231.39;;;5.89;78.49
54369;BME280;40266;52.434;17.056;2023-02-18T07:47:16;100236.90;;;5.97;78.67
54369;BME280;40266;52.434;17.056;2023-02-18T07:50:01;100240.70;;;6.01;78.43
54369;BME280;40266;52.434;17.056;2023-02-18T07:52:44;100246.61;;;6.02;78.40
54369;BME280;40266;52.434;17.056;2023-02-18T07:55:27;100239.48;;;6.04;78.24
54369;BME280;40266;52.434;17.056;2023-02-18T07:58:34;100249.88;;;6.05;77.89
54369;BME280;40266;52.434;17.056;2023-02-18T08:01:17;100247.98;;;6.05;77.69
54369;BME280;40266;52.434;17.056;2023-02-18T08:04:00;100239.30;;;6.03;77.71
54369;BME280;40266;52.434;17.056;2023-02-18T08:06:45;100247.97;;;6.04;77.41
54369;BME280;40266;52.434;17.056;2023-02-18T08:09:29;100250.19;;;6.11;77.53
54369;BME280;40266;52.434;17.056;2023-02-18T08:12:12;100246.29;;;6.22;77.62
54369;BME280;40266;52.434;17.056;2023-02-18T08:14:55;100233.72;;;6.35;76.89
54369;BME280;40266;52.434;17.056;2023-02-18T08:17:38;100232.77;;;6.47;76.58
54369;BME280;40266;52.434;17.056;2023-02-18T08:20:21;100233.89;;;6.59;76.40
54369;BME280;40266;52.434;17.056;2023-02-18T08:23:04;100232.92;;;6.70;76.11
54369;BME280;40266;52.434;17.056;2023-02-18T08:25:49;100239.96;;;6.80;75.22
54369;BME280;40266;52.434;17.056;2023-02-18T08:28:32;100238.48;;;6.91;75.70
54369;BME280;40266;52.434;17.056;2023-02-18T08:31:19;100238.40;;;6.98;74.97
54369;BME280;40266;52.434;17.056;2023-02-18T08:34:02;100243.23;;;7.01;75.04
54369;BME280;40266;52.434;17.056;2023-02-18T08:36:45;100242.48;;;7.07;74.60
54369;BME280;40266;52.434;17.056;2023-02-18T08:39:33;100244.02;;;7.11;74.32
54369;BME280;40266;52.434;17.056;2023-02-18T08:42:16;100242.95;;;7.12;74.06
54369;BME280;40266;52.434;17.056;2023-02-18T08:44:59;100241.55;;;7.14;73.99
54369;BME280;40266;52.434;17.056;2023-02-18T08:47:43;100245.81;;;7.22;73.78
54369;BME280;40266;52.434;17.056;2023-02-18T08:50:47;100246.39;;;7.32;74.08
54369;BME280;40266;52.434;17.056;2023-02-18T08:53:30;100243.36;;;7.39;73.49
54369;BME280;40266;52.434;17.056;2023-02-18T08:56:13;100249.09;;;7.39;73.66
54369;BME280;40266;52.434;17.056;2023-02-18T08:58:57;100251.20;;;7.37;73.39
54369;BME280;40266;52.434;17.056;2023-02-18T09:01:40;100239.25;;;7.33;73.56
54369;BME280;40266;52.434;17.056;2023-02-18T09:04:23;100236.80;;;7.34;73.15
54369;BME280;40266;52.434;17.056;2023-02-18T09:07:06;100234.69;;;7.37;73.44
54369;BME280;40266;52.434;17.056;2023-02-18T09:09:49;100228.93;;;7.40;73.24
54369;BME280;40266;52.434;17.056;2023-02-18T09:12:33;100234.11;;;7.43;73.28
54369;BME280;40266;52.434;17.056;2023-02-18T09:15:16;100237.20;;;7.46;73.14
54369;BME280;40266;52.434;17.056;2023-02-18T09:17:59;100241.05;;;7.58;73.69
54369;BME280;40266;52.434;17.056;2023-02-18T09:20:42;100237.59;;;7.72;73.11
54369;BME280;40266;52.434;17.056;2023-02-18T09:23:27;100236.06;;;7.82;72.76
54369;BME280;40266;52.434;17.056;2023-02-18T09:26:13;100235.14;;;7.86;72.12
54369;BME280;40266;52.434;17.056;2023-02-18T09:28:56;100234.61;;;7.86;71.77
54369;BME280;40266;52.434;17.056;2023-02-18T09:31:42;100229.33;;;7.91;71.49
54369;BME280;40266;52.434;17.056;2023-02-18T09:34:25;100223.48;;;7.99;71.66
54369;BME280;40266;52.434;17.056;2023-02-18T09:37:08;100217.90;;;8.13;71.54
54369;BME280;40266;52.434;17.056;2023-02-18T09:39:51;100202.73;;;8.26;71.19
54369;BME280;40266;52.434;17.056;2023-02-18T09:42:34;100204.17;;;8.35;70.95
54369;BME280;40266;52.434;17.056;2023-02-18T09:45:18;100203.39;;;8.42;70.94
54369;BME280;40266;52.434;17.056;2023-02-18T09:48:03;100203.02;;;8.55;70.91
54369;BME280;40266;52.434;17.056;2023-02-18T09:50:49;100202.52;;;8.63;70.27
54369;BME280;40266;52.434;17.056;2023-02-18T09:53:35;100202.99;;;8.65;70.08
54369;BME280;40266;52.434;17.056;2023-02-18T09:56:27;100201.75;;;8.68;69.24
54369;BME280;40266;52.434;17.056;2023-02-18T09:59:19;100201.14;;;8.62;68.96
54369;BME280;40266;52.434;17.056;2023-02-18T10:02:03;100199.02;;;8.53;68.06
54369;BME280;40266;52.434;17.056;2023-02-18T10:04:52;100202.14;;;8.43;67.62
54369;BME280;40266;52.434;17.056;2023-02-18T10:07:37;100193.52;;;8.38;67.04
54369;BME280;40266;52.434;17.056;2023-02-18T10:10:35;100190.02;;;8.39;67.20
54369;BME280;40266;52.434;17.056;2023-02-18T10:13:23;100189.50;;;8.39;67.07
54369;BME280;40266;52.434;17.056;2023-02-18T10:16:08;100183.98;;;8.34;66.50
54369;BME280;40266;52.434;17.056;2023-02-18T10:18:57;100186.27;;;8.35;67.09
54369;BME280;40266;52.434;17.056;2023-02-18T10:21:41;100181.83;;;8.40;67.00
54369;BME280;40266;52.434;17.056;2023-02-18T10:24:29;100174.08;;;8.47;66.91
54369;BME280;40266;52.434;17.056;2023-02-18T10:27:31;100165.19;;;8.48;66.30
54369;BME280;40266;52.434;17.056;2023-02-18T10:33:49;100150.41;;;8.47;65.96
54369;BME280;40266;52.434;17.056;2023-02-18T10:36:41;100137.81;;;8.51;65.93
54369;BME280;40266;52.434;17.056;2023-02-18T10:51:15;100093.03;;;9.32;64.39
54369;BME280;40266;52.434;17.056;2023-02-18T10:53:59;100089.80;;;9.45;63.97
54369;BME280;40266;52.434;17.056;2023-02-18T10:56:48;100088.48;;;9.57;63.66
54369;BME280;40266;52.434;17.056;2023-02-18T10:59:32;100081.41;;;9.69;63.38
54369;BME280;40266;52.434;17.056;2023-02-18T11:02:17;100077.85;;;9.79;62.59
54369;BME280;40266;52.434;17.056;2023-02-18T11:05:15;100084.52;;;9.85;61.37
54369;BME280;40266;52.434;17.056;2023-02-18T11:07:58;100082.53;;;9.81;61.39
54369;BME280;40266;52.434;17.056;2023-02-18T11:10:44;100079.29;;;9.78;61.12
54369;BME280;40266;52.434;17.056;2023-02-18T11:13:29;100074.95;;;9.77;61.65
54369;BME280;40266;52.434;17.056;2023-02-18T11:16:14;100071.27;;;9.78;61.64
54369;BME280;40266;52.434;17.056;2023-02-18T11:18:58;100070.29;;;9.75;61.31
54369;BME280;40266;52.434;17.056;2023-02-18T11:21:46;100058.32;;;9.72;61.62
54369;BME280;40266;52.434;17.056;2023-02-18T11:24:29;100040.91;;;9.71;61.52
54369;BME280;40266;52.434;17.056;2023-02-18T11:27:19;100033.42;;;9.70;61.32
54369;BME280;40266;52.434;17.056;2023-02-18T11:30:14;100026.11;;;9.77;61.16
54369;BME280;40266;52.434;17.056;2023-02-18T11:33:03;100019.79;;;9.86;60.42
54369;BME280;40266;52.434;17.056;2023-02-18T11:35:54;100018.08;;;9.91;60.39
54369;BME280;40266;52.434;17.056;2023-02-18T11:38:46;100005.14;;;9.93;60.13
54369;BME280;40266;52.434;17.056;2023-02-18T11:41:36;100005.13;;;9.93;60.74
54369;BME280;40266;52.434;17.056;2023-02-18T11:44:37;99990.47;;;9.94;60.01
54369;BME280;40266;52.434;17.056;2023-02-18T11:47:25;99980.70;;;9.94;60.16
54369;BME280;40266;52.434;17.056;2023-02-18T11:52:51;99964.46;;;9.81;58.77
54369;BME280;40266;52.434;17.056;2023-02-18T11:55:35;99966.20;;;9.74;59.63
54369;BME280;40266;52.434;17.056;2023-02-18T11:58:19;99961.61;;;9.70;59.41
54369;BME280;40266;52.434;17.056;2023-02-18T12:01:05;99963.48;;;9.64;59.90
54369;BME280;40266;52.434;17.056;2023-02-18T12:04:27;99959.08;;;9.59;59.84
54369;BME280;40266;52.434;17.056;2023-02-18T12:07:16;99956.09;;;9.54;59.40
54369;BME280;40266;52.434;17.056;2023-02-18T12:10:17;99953.42;;;9.48;59.97
54369;BME280;40266;52.434;17.056;2023-02-18T12:13:24;99950.81;;;9.48;60.55
54369;BME280;40266;52.434;17.056;2023-02-18T12:31:21;99946.77;;;8.74;63.89
54369;BME280;40266;52.434;17.056;2023-02-18T12:43:44;99949.66;;;7.97;67.60
54369;BME280;40266;52.434;17.056;2023-02-18T12:53:00;99924.73;;;7.40;70.90
54369;BME280;40266;52.434;17.056;2023-02-18T12:56:04;99917.15;;;7.26;71.78
54369;BME280;40266;52.434;17.056;2023-02-18T13:01:56;99924.98;;;7.03;73.48
54369;BME280;40266;52.434;17.056;2023-02-18T13:10:43;99919.52;;;6.71;75.88
54369;BME280;40266;52.434;17.056;2023-02-18T13:13:34;99921.94;;;6.59;76.66
54369;BME280;40266;52.434;17.056;2023-02-18T13:16:26;99920.02;;;6.47;77.14
54369;BME280;40266;52.434;17.056;2023-02-18T13:22:19;99912.03;;;6.19;77.61
54369;BME280;40266;52.434;17.056;2023-02-18T13:25:31;99908.56;;;6.03;78.04
54369;BME280;40266;52.434;17.056;2023-02-18T13:40:25;99911.84;;;5.48;81.07
54369;BME280;40266;52.434;17.056;2023-02-18T13:46:21;99913.50;;;5.38;82.04
54369;BME280;40266;52.434;17.056;2023-02-18T13:49:06;99908.54;;;5.32;82.21
54369;BME280;40266;52.434;17.056;2023-02-18T13:51:54;99905.80;;;5.25;82.73
54369;BME280;40266;52.434;17.056;2023-02-18T13:54:43;99907.07;;;5.20;83.34
54369;BME280;40266;52.434;17.056;2023-02-18T13:57:27;99904.13;;;5.19;83.80
54369;BME280;40266;52.434;17.056;2023-02-18T14:00:23;99897.05;;;5.17;84.08
54369;BME280;40266;52.434;17.056;2023-02-18T14:06:34;99902.31;;;5.08;84.61
54369;BME280;40266;52.434;17.056;2023-02-18T14:21:50;99912.02;;;4.80;85.72
54369;BME280;40266;52.434;17.056;2023-02-18T14:24:09;99901.83;;;4.77;86.21
54369;BME280;40266;52.434;17.056;2023-02-18T14:27:08;99896.14;;;4.74;86.15
54369;BME280;40266;52.434;17.056;2023-02-18T14:30:19;99901.16;;;4.72;86.64
54369;BME280;40266;52.434;17.056;2023-02-18T14:33:14;99895.64;;;4.70;86.79
54369;BME280;40266;52.434;17.056;2023-02-18T14:36:21;99893.91;;;4.71;86.84
54369;BME280;40266;52.434;17.056;2023-02-18T14:48:41;99858.50;;;4.63;88.01
54369;BME280;40266;52.434;17.056;2023-02-18T14:51:25;99855.27;;;4.56;87.87
54369;BME280;40266;52.434;17.056;2023-02-18T14:54:15;99858.56;;;4.51;88.17
54369;BME280;40266;52.434;17.056;2023-02-18T14:57:03;99856.83;;;4.52;88.67
54369;BME280;40266;52.434;17.056;2023-02-18T14:59:47;99852.86;;;4.52;88.73
54369;BME280;40266;52.434;17.056;2023-02-18T15:02:35;99840.78;;;4.49;88.87
54369;BME280;40266;52.434;17.056;2023-02-18T15:05:27;99839.05;;;4.48;89.07
54369;BME280;40266;52.434;17.056;2023-02-18T15:11:01;99828.51;;;4.47;89.64
54369;BME280;40266;52.434;17.056;2023-02-18T15:13:45;99825.39;;;4.46;89.56
54369;BME280;40266;52.434;17.056;2023-02-18T15:16:37;99827.66;;;4.45;89.63
54369;BME280;40266;52.434;17.056;2023-02-18T15:19:24;99823.34;;;4.43;89.96
54369;BME280;40266;52.434;17.056;2023-02-18T15:22:24;99825.95;;;4.41;89.84
54369;BME280;40266;52.434;17.056;2023-02-18T15:25:10;99830.10;;;4.41;89.73
54369;BME280;40266;52.434;17.056;2023-02-18T15:27:54;99829.76;;;4.40;90.23
54369;BME280;40266;52.434;17.056;2023-02-18T15:30:43;99837.20;;;4.38;90.23
54369;BME280;40266;52.434;17.056;2023-02-18T15:33:27;99839.80;;;4.37;90.42
54369;BME280;40266;52.434;17.056;2023-02-18T15:36:13;99835.33;;;4.34;90.54
54369;BME280;40266;52.434;17.056;2023-02-18T15:38:56;99830.33;;;4.32;90.76
54369;BME280;40266;52.434;17.056;2023-02-18T15:41:39;99827.73;;;4.31;90.82
54369;BME280;40266;52.434;17.056;2023-02-18T15:44:24;99824.63;;;4.29;91.09
54369;BME280;40266;52.434;17.056;2023-02-18T15:47:08;99815.48;;;4.26;91.19
54369;BME280;40266;52.434;17.056;2023-02-18T15:49:54;99809.80;;;4.25;91.19
54369;BME280;40266;52.434;17.056;2023-02-18T15:52:38;99812.39;;;4.22;91.32
54369;BME280;40266;52.434;17.056;2023-02-18T15:55:33;99818.80;;;4.21;91.40
54369;BME280;40266;52.434;17.056;2023-02-18T15:58:30;99810.86;;;4.18;91.32
54369;BME280;40266;52.434;17.056;2023-02-18T16:01:28;99802.59;;;4.13;91.42
54369;BME280;40266;52.434;17.056;2023-02-18T16:04:14;99796.21;;;4.11;91.60
54369;BME280;40266;52.434;17.056;2023-02-18T16:07:02;99790.73;;;4.05;91.46
54369;BME280;40266;52.434;17.056;2023-02-18T16:09:45;99799.55;;;4.01;91.33
54369;BME280;40266;52.434;17.056;2023-02-18T16:12:30;99806.65;;;3.98;91.62
54369;BME280;40266;52.434;17.056;2023-02-18T16:15:18;99802.16;;;3.95;91.76
54369;BME280;40266;52.434;17.056;2023-02-18T16:18:05;99799.92;;;3.93;91.95
54369;BME280;40266;52.434;17.056;2023-02-18T16:20:58;99808.41;;;3.90;92.05
54369;BME280;40266;52.434;17.056;2023-02-18T16:23:57;99804.09;;;3.89;92.10
54369;BME280;40266;52.434;17.056;2023-02-18T16:26:41;99800.30;;;3.87;92.32
54369;BME280;40266;52.434;17.056;2023-02-18T16:29:34;99803.42;;;3.85;92.04
54369;BME280;40266;52.434;17.056;2023-02-18T16:32:18;99799.97;;;3.83;92.35
54369;BME280;40266;52.434;17.056;2023-02-18T16:35:14;99794.63;;;3.81;92.54
54369;BME280;40266;52.434;17.056;2023-02-18T16:37:58;99796.19;;;3.79;92.53
54369;BME280;40266;52.434;17.056;2023-02-18T16:40:41;99798.09;;;3.78;92.62
54369;BME280;40266;52.434;17.056;2023-02-18T16:43:26;99802.24;;;3.77;92.70
54369;BME280;40266;52.434;17.056;2023-02-18T16:46:16;99816.73;;;3.76;92.78
54369;BME280;40266;52.434;17.056;2023-02-18T16:48:59;99824.88;;;3.75;92.94
54369;BME280;40266;52.434;17.056;2023-02-18T16:51:42;99833.33;;;3.74;93.16
54369;BME280;40266;52.434;17.056;2023-02-18T16:54:25;99839.04;;;3.74;93.20
54369;BME280;40266;52.434;17.056;2023-02-18T16:57:10;99842.66;;;3.73;93.45
54369;BME280;40266;52.434;17.056;2023-02-18T16:59:53;99844.21;;;3.73;93.43
54369;BME280;40266;52.434;17.056;2023-02-18T17:02:36;99841.80;;;3.73;93.61
54369;BME280;40266;52.434;17.056;2023-02-18T17:05:22;99846.11;;;3.71;93.66
54369;BME280;40266;52.434;17.056;2023-02-18T17:11:01;99867.02;;;3.71;93.83
54369;BME280;40266;52.434;17.056;2023-02-18T17:13:43;99870.82;;;3.70;93.85
54369;BME280;40266;52.434;17.056;2023-02-18T17:16:26;99876.52;;;3.69;93.88
54369;BME280;40266;52.434;17.056;2023-02-18T17:19:10;99879.29;;;3.68;93.93
54369;BME280;40266;52.434;17.056;2023-02-18T17:21:53;99886.55;;;3.67;94.00
54369;BME280;40266;52.434;17.056;2023-02-18T17:24:36;99898.45;;;3.67;94.18
54369;BME280;40266;52.434;17.056;2023-02-18T17:27:19;99902.42;;;3.66;94.11
54369;BME280;40266;52.434;17.056;2023-02-18T17:30:03;99911.77;;;3.66;94.46
54369;BME280;40266;52.434;17.056;2023-02-18T17:32:48;99906.57;;;3.65;94.44
54369;BME280;40266;52.434;17.056;2023-02-18T17:35:31;99909.68;;;3.64;94.57
54369;BME280;40266;52.434;17.056;2023-02-18T17:38:16;99913.48;;;3.63;94.67
54369;BME280;40266;52.434;17.056;2023-02-18T17:40:59;99922.81;;;3.62;94.69
54369;BME280;40266;52.434;17.056;2023-02-18T17:43:42;99935.94;;;3.59;94.65